sensor_id;sensor_type;location;lat;lon;timestamp;temperature;humidity
30134;DHT22;16946;49.984;10.672;2022-08-30T00:00:18;15.50;99.90
30134;DHT22;16946;49.984;10.672;2022-08-30T00:01:09;15.50;99.90
30134;DHT22;16946;49.984;10.672;2022-08-30T00:01:40;15.50;99.90
30134;DHT22;16946;49.984;10.672;2022-08-30T00:02:12;15.60;99.90
30134;DHT22;16946;49.984;10.672;2022-08-30T00:02:42;15.60;99.90
30134;DHT22;16946;49.984;10.672;2022-08-30T00:03:13;15.70;99.90
30134;DHT22;16946;49.984;10.672;2022-08-30T00:03:45;15.70;99.90
30134;DHT22;16946;49.984;10.672;2022-08-30T00:04:16;15.80;99.90
30134;DHT22;16946;49.984;10.672;2022-08-30T00:04:46;15.90;99.90
30134;DHT22;16946;49.984;10.672;2022-08-30T00:05:17;15.90;99.90
30134;DHT22;16946;49.984;10.672;2022-08-30T00:05:48;16.00;99.90
30134;DHT22;16946;49.984;10.672;2022-08-30T00:06:19;16.00;99.90
30134;DHT22;16946;49.984;10.672;2022-08-30T00:06:50;16.00;99.90
30134;DHT22;16946;49.984;10.672;2022-08-30T00:07:21;16.00;99.90
30134;DHT22;16946;49.984;10.672;2022-08-30T00:07:51;16.00;99.90
30134;DHT22;16946;49.984;10.672;2022-08-30T00:08:22;16.00;99.90
30134;DHT22;16946;49.984;10.672;2022-08-30T00:08:53;16.00;99.90
30134;DHT22;16946;49.984;10.672;2022-08-30T00:09:23;16.00;99.90
30134;DHT22;16946;49.984;10.672;2022-08-30T00:09:54;16.00;99.90
30134;DHT22;16946;49.984;10.672;2022-08-30T00:10:25;16.00;99.90
30134;DHT22;16946;49.984;10.672;2022-08-30T00:10:58;16.00;99.90
30134;DHT22;16946;49.984;10.672;2022-08-30T00:11:29;16.00;99.90
30134;DHT22;16946;49.984;10.672;2022-08-30T00:11:59;16.00;99.90
30134;DHT22;16946;49.984;10.672;2022-08-30T00:12:30;16.00;99.90
30134;DHT22;16946;49.984;10.672;2022-08-30T00:13:02;15.90;99.90
30134;DHT22;16946;49.984;10.672;2022-08-30T00:13:32;15.90;99.90
30134;DHT22;16946;49.984;10.672;2022-08-30T00:14:03;15.80;99.90
30134;DHT22;16946;49.984;10.672;2022-08-30T00:14:33;15.80;99.90
30134;DHT22;16946;49.984;10.672;2022-08-30T00:15:05;15.80;99.90
30134;DHT22;16946;49.984;10.672;2022-08-30T00:15:37;15.80;99.90
30134;DHT22;16946;49.984;10.672;2022-08-30T00:16:08;15.70;99.90
30134;DHT22;16946;49.984;10.672;2022-08-30T00:16:38;15.60;99.90
30134;DHT22;16946;49.984;10.672;2022-08-30T00:17:09;15.60;99.90
30134;DHT22;16946;49.984;10.672;2022-08-30T00:17:40;15.60;99.90
30134;DHT22;16946;49.984;10.672;2022-08-30T00:18:11;15.60;99.90
30134;DHT22;16946;49.984;10.672;2022-08-30T00:18:42;15.60;99.90
30134;DHT22;16946;49.984;10.672;2022-08-30T00:19:13;15.60;99.90
30134;DHT22;16946;49.984;10.672;2022-08-30T00:19:44;15.60;99.90
30134;DHT22;16946;49.984;10.672;2022-08-30T00:20:17;15.60;99.90
30134;DHT22;16946;49.984;10.672;2022-08-30T00:20:49;15.50;99.90
30134;DHT22;16946;49.984;10.672;2022-08-30T00:21:20;15.50;99.90
30134;DHT22;16946;49.984;10.672;2022-08-30T00:21:50;15.50;99.90
30134;DHT22;16946;49.984;10.672;2022-08-30T00:22:21;15.50;99.90
30134;DHT22;16946;49.984;10.672;2022-08-30T00:22:52;15.60;99.90
30134;DHT22;16946;49.984;10.672;2022-08-30T00:23:23;15.60;99.90
30134;DHT22;16946;49.984;10.672;2022-08-30T00:23:54;15.60;99.90
30134;DHT22;16946;49.984;10.672;2022-08-30T00:24:24;15.60;99.90
30134;DHT22;16946;49.984;10.672;2022-08-30T00:24:55;15.60;99.90
30134;DHT22;16946;49.984;10.672;2022-08-30T00:25:26;15.60;99.90
30134;DHT22;16946;49.984;10.672;2022-08-30T00:25:57;15.50;99.90
30134;DHT22;16946;49.984;10.672;2022-08-30T00:26:27;15.50;99.90
30134;DHT22;16946;49.984;10.672;2022-08-30T00:26:58;15.50;99.90
30134;DHT22;16946;49.984;10.672;2022-08-30T00:27:29;15.50;99.90
30134;DHT22;16946;49.984;10.672;2022-08-30T00:28:00;15.40;99.90
30134;DHT22;16946;49.984;10.672;2022-08-30T00:28:32;15.40;99.90
30134;DHT22;16946;49.984;10.672;2022-08-30T00:29:03;15.40;99.90
30134;DHT22;16946;49.984;10.672;2022-08-30T00:29:33;15.40;99.90
30134;DHT22;16946;49.984;10.672;2022-08-30T00:30:05;15.40;99.90
30134;DHT22;16946;49.984;10.672;2022-08-30T00:30:36;15.40;99.90
30134;DHT22;16946;49.984;10.672;2022-08-30T00:31:07;15.40;99.90
30134;DHT22;16946;49.984;10.672;2022-08-30T00:31:38;15.40;99.90
30134;DHT22;16946;49.984;10.672;2022-08-30T00:32:08;15.50;99.90
30134;DHT22;16946;49.984;10.672;2022-08-30T00:32:39;15.50;99.90
30134;DHT22;16946;49.984;10.672;2022-08-30T00:33:11;15.50;99.90
30134;DHT22;16946;49.984;10.672;2022-08-30T00:33:42;15.50;99.90
30134;DHT22;16946;49.984;10.672;2022-08-30T00:34:13;15.50;99.90
30134;DHT22;16946;49.984;10.672;2022-08-30T00:34:46;15.50;99.90
30134;DHT22;16946;49.984;10.672;2022-08-30T00:35:18;15.50;99.90
30134;DHT22;16946;49.984;10.672;2022-08-30T00:35:49;15.40;99.90
30134;DHT22;16946;49.984;10.672;2022-08-30T00:36:20;15.40;99.90
30134;DHT22;16946;49.984;10.672;2022-08-30T00:36:50;15.40;99.90
30134;DHT22;16946;49.984;10.672;2022-08-30T00:37:21;15.40;99.90
30134;DHT22;16946;49.984;10.672;2022-08-30T00:37:52;15.50;99.90
30134;DHT22;16946;49.984;10.672;2022-08-30T00:38:23;15.50;99.90
30134;DHT22;16946;49.984;10.672;2022-08-30T00:38:53;15.40;99.90
30134;DHT22;16946;49.984;10.672;2022-08-30T00:39:24;15.40;99.90
30134;DHT22;16946;49.984;10.672;2022-08-30T00:39:54;15.40;99.90
30134;DHT22;16946;49.984;10.672;2022-08-30T00:40:26;15.40;99.90
30134;DHT22;16946;49.984;10.672;2022-08-30T00:40:57;15.30;99.90
30134;DHT22;16946;49.984;10.672;2022-08-30T00:41:29;15.30;99.90
30134;DHT22;16946;49.984;10.672;2022-08-30T00:41:59;15.30;99.90
30134;DHT22;16946;49.984;10.672;2022-08-30T00:42:31;15.30;99.90
30134;DHT22;16946;49.984;10.672;2022-08-30T00:43:05;15.40;99.90
30134;DHT22;16946;49.984;10.672;2022-08-30T00:43:36;15.40;99.90
30134;DHT22;16946;49.984;10.672;2022-08-30T00:44:06;15.40;99.90
30134;DHT22;16946;49.984;10.672;2022-08-30T00:44:38;15.40;99.90
30134;DHT22;16946;49.984;10.672;2022-08-30T00:45:21;15.40;99.90
30134;DHT22;16946;49.984;10.672;2022-08-30T00:45:54;15.40;99.90
30134;DHT22;16946;49.984;10.672;2022-08-30T00:46:24;15.40;99.90
30134;DHT22;16946;49.984;10.672;2022-08-30T00:46:55;15.40;99.90
30134;DHT22;16946;49.984;10.672;2022-08-30T00:47:26;15.40;99.90
30134;DHT22;16946;49.984;10.672;2022-08-30T00:47:57;15.50;99.90
30134;DHT22;16946;49.984;10.672;2022-08-30T00:48:27;15.40;99.90
30134;DHT22;16946;49.984;10.672;2022-08-30T00:49:02;15.40;99.90
30134;DHT22;16946;49.984;10.672;2022-08-30T00:49:36;15.40;99.90
30134;DHT22;16946;49.984;10.672;2022-08-30T00:50:09;15.40;99.90
30134;DHT22;16946;49.984;10.672;2022-08-30T00:50:46;15.40;99.90
30134;DHT22;16946;49.984;10.672;2022-08-30T00:51:17;15.40;99.90
30134;DHT22;16946;49.984;10.672;2022-08-30T00:51:49;15.40;99.90
30134;DHT22;16946;49.984;10.672;2022-08-30T00:52:21;15.40;99.90
30134;DHT22;16946;49.984;10.672;2022-08-30T00:52:55;15.30;99.90
30134;DHT22;16946;49.984;10.672;2022-08-30T00:53:31;15.40;99.90
30134;DHT22;16946;49.984;10.672;2022-08-30T00:54:03;15.30;99.90
30134;DHT22;16946;49.984;10.672;2022-08-30T00:54:35;15.30;99.90
30134;DHT22;16946;49.984;10.672;2022-08-30T00:55:06;15.30;99.90
30134;DHT22;16946;49.984;10.672;2022-08-30T00:55:36;15.30;99.90
30134;DHT22;16946;49.984;10.672;2022-08-30T00:56:07;15.30;99.90
30134;DHT22;16946;49.984;10.672;2022-08-30T00:56:39;15.30;99.90
30134;DHT22;16946;49.984;10.672;2022-08-30T00:57:11;15.30;99.90
30134;DHT22;16946;49.984;10.672;2022-08-30T00:57:44;15.40;99.90
30134;DHT22;16946;49.984;10.672;2022-08-30T00:58:18;15.30;99.90
30134;DHT22;16946;49.984;10.672;2022-08-30T00:58:53;15.30;99.90
30134;DHT22;16946;49.984;10.672;2022-08-30T00:59:25;15.30;99.90
30134;DHT22;16946;49.984;10.672;2022-08-30T00:59:57;15.30;99.90
30134;DHT22;16946;49.984;10.672;2022-08-30T01:00:28;15.20;99.90
30134;DHT22;16946;49.984;10.672;2022-08-30T01:00:59;15.20;99.90
30134;DHT22;16946;49.984;10.672;2022-08-30T01:01:30;15.20;99.90
30134;DHT22;16946;49.984;10.672;2022-08-30T01:02:01;15.20;99.90
30134;DHT22;16946;49.984;10.672;2022-08-30T01:02:32;15.20;99.90
30134;DHT22;16946;49.984;10.672;2022-08-30T01:03:03;15.10;99.90
30134;DHT22;16946;49.984;10.672;2022-08-30T01:03:35;15.10;99.90
30134;DHT22;16946;49.984;10.672;2022-08-30T01:04:07;15.10;99.90
30134;DHT22;16946;49.984;10.672;2022-08-30T01:04:42;15.10;99.90
30134;DHT22;16946;49.984;10.672;2022-08-30T01:05:13;15.10;99.90
30134;DHT22;16946;49.984;10.672;2022-08-30T01:05:45;15.10;99.90
30134;DHT22;16946;49.984;10.672;2022-08-30T01:06:16;15.10;99.90
30134;DHT22;16946;49.984;10.672;2022-08-30T01:06:47;15.00;99.90
30134;DHT22;16946;49.984;10.672;2022-08-30T01:07:17;15.00;99.90
30134;DHT22;16946;49.984;10.672;2022-08-30T01:07:48;15.00;99.90
30134;DHT22;16946;49.984;10.672;2022-08-30T01:08:19;15.00;99.90
30134;DHT22;16946;49.984;10.672;2022-08-30T01:08:51;15.00;99.90
30134;DHT22;16946;49.984;10.672;2022-08-30T01:09:22;15.00;99.90
30134;DHT22;16946;49.984;10.672;2022-08-30T01:09:53;15.00;99.90
30134;DHT22;16946;49.984;10.672;2022-08-30T01:10:24;15.00;99.90
30134;DHT22;16946;49.984;10.672;2022-08-30T01:10:55;15.10;99.90
30134;DHT22;16946;49.984;10.672;2022-08-30T01:11:27;15.10;99.90
30134;DHT22;16946;49.984;10.672;2022-08-30T01:11:58;15.10;99.90
30134;DHT22;16946;49.984;10.672;2022-08-30T01:12:29;15.00;99.90
30134;DHT22;16946;49.984;10.672;2022-08-30T01:12:59;15.00;99.90
30134;DHT22;16946;49.984;10.672;2022-08-30T01:13:30;15.00;99.90
30134;DHT22;16946;49.984;10.672;2022-08-30T01:14:02;15.10;99.90
30134;DHT22;16946;49.984;10.672;2022-08-30T01:14:33;15.00;99.90
30134;DHT22;16946;49.984;10.672;2022-08-30T01:15:05;15.00;99.90
30134;DHT22;16946;49.984;10.672;2022-08-30T01:15:36;15.00;99.90
30134;DHT22;16946;49.984;10.672;2022-08-30T01:16:07;15.00;99.90
30134;DHT22;16946;49.984;10.672;2022-08-30T01:16:39;15.00;99.90
30134;DHT22;16946;49.984;10.672;2022-08-30T01:17:11;15.00;99.90
30134;DHT22;16946;49.984;10.672;2022-08-30T01:17:44;15.00;99.90
30134;DHT22;16946;49.984;10.672;2022-08-30T01:18:16;14.90;99.90
30134;DHT22;16946;49.984;10.672;2022-08-30T01:18:49;14.90;99.90
30134;DHT22;16946;49.984;10.672;2022-08-30T01:19:49;14.80;99.90
30134;DHT22;16946;49.984;10.672;2022-08-30T01:20:34;14.80;99.90
30134;DHT22;16946;49.984;10.672;2022-08-30T01:21:49;14.80;99.90
30134;DHT22;16946;49.984;10.672;2022-08-30T01:23:17;14.80;99.90
30134;DHT22;16946;49.984;10.672;2022-08-30T01:23:51;14.80;99.90
30134;DHT22;16946;49.984;10.672;2022-08-30T01:24:23;14.80;99.90
30134;DHT22;16946;49.984;10.672;2022-08-30T01:24:55;14.80;99.90
30134;DHT22;16946;49.984;10.672;2022-08-30T01:25:29;14.80;99.90
30134;DHT22;16946;49.984;10.672;2022-08-30T01:26:01;14.80;99.90
30134;DHT22;16946;49.984;10.672;2022-08-30T01:26:33;14.80;99.90
30134;DHT22;16946;49.984;10.672;2022-08-30T01:27:05;14.70;99.90
30134;DHT22;16946;49.984;10.672;2022-08-30T01:27:41;14.70;99.90
30134;DHT22;16946;49.984;10.672;2022-08-30T01:28:18;14.70;99.90
30134;DHT22;16946;49.984;10.672;2022-08-30T01:28:53;14.70;99.90
30134;DHT22;16946;49.984;10.672;2022-08-30T01:29:25;14.70;99.90
30134;DHT22;16946;49.984;10.672;2022-08-30T01:29:58;14.70;99.90
30134;DHT22;16946;49.984;10.672;2022-08-30T01:30:30;14.70;99.90
30134;DHT22;16946;49.984;10.672;2022-08-30T01:31:01;14.70;99.90
30134;DHT22;16946;49.984;10.672;2022-08-30T01:31:32;14.70;99.90
30134;DHT22;16946;49.984;10.672;2022-08-30T01:32:06;14.70;99.90
30134;DHT22;16946;49.984;10.672;2022-08-30T01:32:43;14.60;99.90
30134;DHT22;16946;49.984;10.672;2022-08-30T01:33:14;14.60;99.90
30134;DHT22;16946;49.984;10.672;2022-08-30T01:33:45;14.60;99.90
30134;DHT22;16946;49.984;10.672;2022-08-30T01:34:15;14.60;99.90
30134;DHT22;16946;49.984;10.672;2022-08-30T01:34:46;14.50;99.90
30134;DHT22;16946;49.984;10.672;2022-08-30T01:35:18;14.50;99.90
30134;DHT22;16946;49.984;10.672;2022-08-30T01:35:56;14.50;99.90
30134;DHT22;16946;49.984;10.672;2022-08-30T01:36:27;14.50;99.90
30134;DHT22;16946;49.984;10.672;2022-08-30T01:36:58;14.50;99.90
30134;DHT22;16946;49.984;10.672;2022-08-30T01:37:30;14.60;99.90
30134;DHT22;16946;49.984;10.672;2022-08-30T01:38:02;14.50;99.90
30134;DHT22;16946;49.984;10.672;2022-08-30T01:38:38;14.50;99.90
30134;DHT22;16946;49.984;10.672;2022-08-30T01:39:11;14.50;99.90
30134;DHT22;16946;49.984;10.672;2022-08-30T01:39:44;14.50;99.90
30134;DHT22;16946;49.984;10.672;2022-08-30T01:40:16;14.50;99.90
30134;DHT22;16946;49.984;10.672;2022-08-30T01:40:49;14.50;99.90
30134;DHT22;16946;49.984;10.672;2022-08-30T01:41:27;14.50;99.90
30134;DHT22;16946;49.984;10.672;2022-08-30T01:41:58;14.50;99.90
30134;DHT22;16946;49.984;10.672;2022-08-30T01:42:29;14.50;99.90
30134;DHT22;16946;49.984;10.672;2022-08-30T01:42:59;14.50;99.90
30134;DHT22;16946;49.984;10.672;2022-08-30T01:43:30;14.50;99.90
30134;DHT22;16946;49.984;10.672;2022-08-30T01:44:03;14.50;99.90
30134;DHT22;16946;49.984;10.672;2022-08-30T01:44:34;14.50;99.90
30134;DHT22;16946;49.984;10.672;2022-08-30T01:45:06;14.50;99.90
30134;DHT22;16946;49.984;10.672;2022-08-30T01:45:36;14.50;99.90
30134;DHT22;16946;49.984;10.672;2022-08-30T01:46:07;14.40;99.90
30134;DHT22;16946;49.984;10.672;2022-08-30T01:46:45;14.40;99.90
30134;DHT22;16946;49.984;10.672;2022-08-30T01:47:17;14.40;99.90
30134;DHT22;16946;49.984;10.672;2022-08-30T01:47:48;14.40;99.90
30134;DHT22;16946;49.984;10.672;2022-08-30T01:48:19;14.40;99.90
30134;DHT22;16946;49.984;10.672;2022-08-30T01:48:52;14.40;99.90
30134;DHT22;16946;49.984;10.672;2022-08-30T01:49:23;14.40;99.90
30134;DHT22;16946;49.984;10.672;2022-08-30T01:49:54;14.50;99.90
30134;DHT22;16946;49.984;10.672;2022-08-30T01:50:24;14.50;99.90
30134;DHT22;16946;49.984;10.672;2022-08-30T01:50:55;14.50;99.90
30134;DHT22;16946;49.984;10.672;2022-08-30T01:51:27;14.50;99.90
30134;DHT22;16946;49.984;10.672;2022-08-30T01:51:58;14.50;99.90
30134;DHT22;16946;49.984;10.672;2022-08-30T01:52:29;14.50;99.90
30134;DHT22;16946;49.984;10.672;2022-08-30T01:52:59;14.50;99.90
30134;DHT22;16946;49.984;10.672;2022-08-30T01:53:30;14.50;99.90
30134;DHT22;16946;49.984;10.672;2022-08-30T01:54:02;14.50;99.90
30134;DHT22;16946;49.984;10.672;2022-08-30T01:54:36;14.50;99.90
30134;DHT22;16946;49.984;10.672;2022-08-30T01:55:08;14.50;99.90
30134;DHT22;16946;49.984;10.672;2022-08-30T01:55:39;14.50;99.90
30134;DHT22;16946;49.984;10.672;2022-08-30T01:56:10;14.50;99.90
30134;DHT22;16946;49.984;10.672;2022-08-30T01:56:40;14.50;99.90
30134;DHT22;16946;49.984;10.672;2022-08-30T01:57:14;14.50;99.90
30134;DHT22;16946;49.984;10.672;2022-08-30T01:57:46;14.50;99.90
30134;DHT22;16946;49.984;10.672;2022-08-30T01:58:19;14.50;99.90
30134;DHT22;16946;49.984;10.672;2022-08-30T01:58:50;14.50;99.90
30134;DHT22;16946;49.984;10.672;2022-08-30T01:59:21;14.50;99.90
30134;DHT22;16946;49.984;10.672;2022-08-30T01:59:52;14.40;99.90
30134;DHT22;16946;49.984;10.672;2022-08-30T02:00:22;14.40;99.90
30134;DHT22;16946;49.984;10.672;2022-08-30T02:00:53;14.40;99.90
30134;DHT22;16946;49.984;10.672;2022-08-30T02:01:26;14.40;99.90
30134;DHT22;16946;49.984;10.672;2022-08-30T02:01:57;14.40;99.90
30134;DHT22;16946;49.984;10.672;2022-08-30T02:02:28;14.40;99.90
30134;DHT22;16946;49.984;10.672;2022-08-30T02:02:59;14.30;99.90
30134;DHT22;16946;49.984;10.672;2022-08-30T02:03:29;14.30;99.90
30134;DHT22;16946;49.984;10.672;2022-08-30T02:04:05;14.30;99.90
30134;DHT22;16946;49.984;10.672;2022-08-30T02:04:35;14.40;99.90
30134;DHT22;16946;49.984;10.672;2022-08-30T02:05:06;14.40;99.90
30134;DHT22;16946;49.984;10.672;2022-08-30T02:05:37;14.30;99.90
30134;DHT22;16946;49.984;10.672;2022-08-30T02:06:10;14.30;99.90
30134;DHT22;16946;49.984;10.672;2022-08-30T02:06:42;14.30;99.90
30134;DHT22;16946;49.984;10.672;2022-08-30T02:07:13;14.30;99.90
30134;DHT22;16946;49.984;10.672;2022-08-30T02:07:44;14.20;99.90
30134;DHT22;16946;49.984;10.672;2022-08-30T02:08:14;14.30;99.90
30134;DHT22;16946;49.984;10.672;2022-08-30T02:08:46;14.20;99.90
30134;DHT22;16946;49.984;10.672;2022-08-30T02:09:16;14.20;99.90
30134;DHT22;16946;49.984;10.672;2022-08-30T02:09:47;14.30;99.90
30134;DHT22;16946;49.984;10.672;2022-08-30T02:10:17;14.20;99.90
30134;DHT22;16946;49.984;10.672;2022-08-30T02:10:48;14.20;99.90
30134;DHT22;16946;49.984;10.672;2022-08-30T02:11:18;14.20;99.90
30134;DHT22;16946;49.984;10.672;2022-08-30T02:11:49;14.20;99.90
30134;DHT22;16946;49.984;10.672;2022-08-30T02:12:20;14.20;99.90
30134;DHT22;16946;49.984;10.672;2022-08-30T02:12:50;14.20;99.90
30134;DHT22;16946;49.984;10.672;2022-08-30T02:13:21;14.20;99.90
30134;DHT22;16946;49.984;10.672;2022-08-30T02:13:52;14.20;99.90
30134;DHT22;16946;49.984;10.672;2022-08-30T02:14:22;14.30;99.90
30134;DHT22;16946;49.984;10.672;2022-08-30T02:14:53;14.20;99.90
30134;DHT22;16946;49.984;10.672;2022-08-30T02:15:23;14.20;99.90
30134;DHT22;16946;49.984;10.672;2022-08-30T02:15:54;14.20;99.90
30134;DHT22;16946;49.984;10.672;2022-08-30T02:16:25;14.20;99.90
30134;DHT22;16946;49.984;10.672;2022-08-30T02:16:56;14.20;99.90
30134;DHT22;16946;49.984;10.672;2022-08-30T02:17:26;14.20;99.90
30134;DHT22;16946;49.984;10.672;2022-08-30T02:17:57;14.20;99.90
30134;DHT22;16946;49.984;10.672;2022-08-30T02:18:28;14.20;99.90
30134;DHT22;16946;49.984;10.672;2022-08-30T02:18:58;14.20;99.90
30134;DHT22;16946;49.984;10.672;2022-08-30T02:19:29;14.20;99.90
30134;DHT22;16946;49.984;10.672;2022-08-30T02:20:00;14.10;99.90
30134;DHT22;16946;49.984;10.672;2022-08-30T02:20:30;14.10;99.90
30134;DHT22;16946;49.984;10.672;2022-08-30T02:21:01;14.10;99.90
30134;DHT22;16946;49.984;10.672;2022-08-30T02:21:32;14.10;99.90
30134;DHT22;16946;49.984;10.672;2022-08-30T02:22:03;14.10;99.90
30134;DHT22;16946;49.984;10.672;2022-08-30T02:22:34;14.10;99.90
30134;DHT22;16946;49.984;10.672;2022-08-30T02:23:04;14.20;99.90
30134;DHT22;16946;49.984;10.672;2022-08-30T02:23:36;14.20;99.90
30134;DHT22;16946;49.984;10.672;2022-08-30T02:24:06;14.30;99.90
30134;DHT22;16946;49.984;10.672;2022-08-30T02:24:37;14.20;99.90
30134;DHT22;16946;49.984;10.672;2022-08-30T02:25:08;14.20;99.90
30134;DHT22;16946;49.984;10.672;2022-08-30T02:25:38;14.30;99.90
30134;DHT22;16946;49.984;10.672;2022-08-30T02:26:11;14.30;99.90
30134;DHT22;16946;49.984;10.672;2022-08-30T02:26:41;14.30;99.90
30134;DHT22;16946;49.984;10.672;2022-08-30T02:27:12;14.30;99.90
30134;DHT22;16946;49.984;10.672;2022-08-30T02:27:43;14.30;99.90
30134;DHT22;16946;49.984;10.672;2022-08-30T02:28:13;14.30;99.90
30134;DHT22;16946;49.984;10.672;2022-08-30T02:28:45;14.30;99.90
30134;DHT22;16946;49.984;10.672;2022-08-30T02:29:16;14.20;99.90
30134;DHT22;16946;49.984;10.672;2022-08-30T02:29:46;14.20;99.90
30134;DHT22;16946;49.984;10.672;2022-08-30T02:30:17;14.20;99.90
30134;DHT22;16946;49.984;10.672;2022-08-30T02:30:48;14.30;99.90
30134;DHT22;16946;49.984;10.672;2022-08-30T02:31:20;14.20;99.90
30134;DHT22;16946;49.984;10.672;2022-08-30T02:31:50;14.20;99.90
30134;DHT22;16946;49.984;10.672;2022-08-30T02:32:21;14.20;99.90
30134;DHT22;16946;49.984;10.672;2022-08-30T02:32:51;14.20;99.90
30134;DHT22;16946;49.984;10.672;2022-08-30T02:33:22;14.20;99.90
30134;DHT22;16946;49.984;10.672;2022-08-30T02:33:53;14.20;99.90
30134;DHT22;16946;49.984;10.672;2022-08-30T02:34:24;14.20;99.90
30134;DHT22;16946;49.984;10.672;2022-08-30T02:34:54;14.20;99.90
30134;DHT22;16946;49.984;10.672;2022-08-30T02:35:25;14.20;99.90
30134;DHT22;16946;49.984;10.672;2022-08-30T02:35:56;14.20;99.90
30134;DHT22;16946;49.984;10.672;2022-08-30T02:36:27;14.20;99.90
30134;DHT22;16946;49.984;10.672;2022-08-30T02:36:57;14.20;99.90
30134;DHT22;16946;49.984;10.672;2022-08-30T02:37:28;14.10;99.90
30134;DHT22;16946;49.984;10.672;2022-08-30T02:37:58;14.10;99.90
30134;DHT22;16946;49.984;10.672;2022-08-30T02:38:29;14.10;99.90
30134;DHT22;16946;49.984;10.672;2022-08-30T02:39:00;14.10;99.90
30134;DHT22;16946;49.984;10.672;2022-08-30T02:39:30;14.20;99.90
30134;DHT22;16946;49.984;10.672;2022-08-30T02:40:02;14.20;99.90
30134;DHT22;16946;49.984;10.672;2022-08-30T02:40:33;14.20;99.90
30134;DHT22;16946;49.984;10.672;2022-08-30T02:41:03;14.20;99.90
30134;DHT22;16946;49.984;10.672;2022-08-30T02:41:34;14.20;99.90
30134;DHT22;16946;49.984;10.672;2022-08-30T02:42:05;14.20;99.90
30134;DHT22;16946;49.984;10.672;2022-08-30T02:42:35;14.20;99.90
30134;DHT22;16946;49.984;10.672;2022-08-30T02:43:06;14.10;99.90
30134;DHT22;16946;49.984;10.672;2022-08-30T02:43:36;14.10;99.90
30134;DHT22;16946;49.984;10.672;2022-08-30T02:44:08;14.10;99.90
30134;DHT22;16946;49.984;10.672;2022-08-30T02:44:39;14.00;99.90
30134;DHT22;16946;49.984;10.672;2022-08-30T02:45:10;14.00;99.90
30134;DHT22;16946;49.984;10.672;2022-08-30T02:45:41;14.00;99.90
30134;DHT22;16946;49.984;10.672;2022-08-30T02:46:12;13.90;99.90
30134;DHT22;16946;49.984;10.672;2022-08-30T02:46:42;13.90;99.90
30134;DHT22;16946;49.984;10.672;2022-08-30T02:47:13;13.90;99.90
30134;DHT22;16946;49.984;10.672;2022-08-30T02:47:43;13.90;99.90
30134;DHT22;16946;49.984;10.672;2022-08-30T02:48:14;13.90;99.90
30134;DHT22;16946;49.984;10.672;2022-08-30T02:48:45;13.80;99.90
30134;DHT22;16946;49.984;10.672;2022-08-30T02:49:16;13.80;99.90
30134;DHT22;16946;49.984;10.672;2022-08-30T02:49:46;13.80;99.90
30134;DHT22;16946;49.984;10.672;2022-08-30T02:50:17;13.80;99.90
30134;DHT22;16946;49.984;10.672;2022-08-30T02:50:51;13.70;99.90
30134;DHT22;16946;49.984;10.672;2022-08-30T02:51:22;13.70;99.90
30134;DHT22;16946;49.984;10.672;2022-08-30T02:51:52;13.70;99.90
30134;DHT22;16946;49.984;10.672;2022-08-30T02:52:22;13.60;99.90
30134;DHT22;16946;49.984;10.672;2022-08-30T02:52:53;13.60;99.90
30134;DHT22;16946;49.984;10.672;2022-08-30T02:53:24;13.60;99.90
30134;DHT22;16946;49.984;10.672;2022-08-30T02:53:54;13.60;99.90
30134;DHT22;16946;49.984;10.672;2022-08-30T02:54:25;13.60;99.90
30134;DHT22;16946;49.984;10.672;2022-08-30T02:54:55;13.60;99.90
30134;DHT22;16946;49.984;10.672;2022-08-30T02:55:26;13.60;99.90
30134;DHT22;16946;49.984;10.672;2022-08-30T02:55:56;13.70;99.90
30134;DHT22;16946;49.984;10.672;2022-08-30T02:56:27;13.70;99.90
30134;DHT22;16946;49.984;10.672;2022-08-30T02:56:58;13.60;99.90
30134;DHT22;16946;49.984;10.672;2022-08-30T02:57:33;13.70;99.90
30134;DHT22;16946;49.984;10.672;2022-08-30T02:58:04;13.70;99.90
30134;DHT22;16946;49.984;10.672;2022-08-30T02:58:35;13.60;99.90
30134;DHT22;16946;49.984;10.672;2022-08-30T02:59:06;13.70;99.90
30134;DHT22;16946;49.984;10.672;2022-08-30T02:59:37;13.60;99.90
30134;DHT22;16946;49.984;10.672;2022-08-30T03:00:16;13.60;99.90
30134;DHT22;16946;49.984;10.672;2022-08-30T03:00:46;13.60;99.90
30134;DHT22;16946;49.984;10.672;2022-08-30T03:01:17;13.60;99.90
30134;DHT22;16946;49.984;10.672;2022-08-30T03:01:47;13.60;99.90
30134;DHT22;16946;49.984;10.672;2022-08-30T03:02:18;13.60;99.90
30134;DHT22;16946;49.984;10.672;2022-08-30T03:02:49;13.60;99.90
30134;DHT22;16946;49.984;10.672;2022-08-30T03:03:19;13.60;99.90
30134;DHT22;16946;49.984;10.672;2022-08-30T03:03:50;13.60;99.90
30134;DHT22;16946;49.984;10.672;2022-08-30T03:04:20;13.60;99.90
30134;DHT22;16946;49.984;10.672;2022-08-30T03:04:51;13.70;99.90
30134;DHT22;16946;49.984;10.672;2022-08-30T03:05:22;13.70;99.90
30134;DHT22;16946;49.984;10.672;2022-08-30T03:05:53;13.70;99.90
30134;DHT22;16946;49.984;10.672;2022-08-30T03:06:23;13.70;99.90
30134;DHT22;16946;49.984;10.672;2022-08-30T03:06:54;13.70;99.90
30134;DHT22;16946;49.984;10.672;2022-08-30T03:07:25;13.70;99.90
30134;DHT22;16946;49.984;10.672;2022-08-30T03:07:55;13.60;99.90
30134;DHT22;16946;49.984;10.672;2022-08-30T03:08:26;13.70;99.90
30134;DHT22;16946;49.984;10.672;2022-08-30T03:08:56;13.60;99.90
30134;DHT22;16946;49.984;10.672;2022-08-30T03:09:27;13.60;99.90
30134;DHT22;16946;49.984;10.672;2022-08-30T03:09:57;13.60;99.90
30134;DHT22;16946;49.984;10.672;2022-08-30T03:10:28;13.60;99.90
30134;DHT22;16946;49.984;10.672;2022-08-30T03:10:59;13.60;99.90
30134;DHT22;16946;49.984;10.672;2022-08-30T03:11:30;13.50;99.90
30134;DHT22;16946;49.984;10.672;2022-08-30T03:12:01;13.50;99.90
30134;DHT22;16946;49.984;10.672;2022-08-30T03:12:31;13.50;99.90
30134;DHT22;16946;49.984;10.672;2022-08-30T03:13:03;13.50;99.90
30134;DHT22;16946;49.984;10.672;2022-08-30T03:13:36;13.50;99.90
30134;DHT22;16946;49.984;10.672;2022-08-30T03:14:07;13.50;99.90
30134;DHT22;16946;49.984;10.672;2022-08-30T03:14:38;13.40;99.90
30134;DHT22;16946;49.984;10.672;2022-08-30T03:15:12;13.40;99.90
30134;DHT22;16946;49.984;10.672;2022-08-30T03:15:43;13.40;99.90
30134;DHT22;16946;49.984;10.672;2022-08-30T03:16:14;13.40;99.90
30134;DHT22;16946;49.984;10.672;2022-08-30T03:16:45;13.40;99.90
30134;DHT22;16946;49.984;10.672;2022-08-30T03:17:15;13.40;99.90
30134;DHT22;16946;49.984;10.672;2022-08-30T03:17:46;13.40;99.90